createdAt,value
2023-04-07T00:01:26.504Z,42.88
2023-04-07T00:03:53.961Z,42.95
2023-04-07T00:06:21.149Z,44.03
2023-04-07T00:08:48.222Z,43.45
2023-04-07T00:11:15.287Z,44.65
2023-04-07T00:13:42.302Z,44.03
2023-04-07T00:16:09.466Z,44.97
2023-04-07T00:18:36.484Z,42.45
2023-04-07T00:21:03.617Z,49.70
2023-04-07T00:23:31.638Z,48.72
2023-04-07T00:25:58.681Z,46.05
2023-04-07T00:28:25.779Z,47.60
2023-04-07T00:30:52.880Z,44.20
2023-04-07T00:33:19.961Z,45.63
2023-04-07T00:35:47.042Z,49.25
2023-04-07T00:38:14.186Z,50.65
2023-04-07T00:40:41.321Z,49.83
2023-04-07T00:43:08.588Z,54.15
2023-04-07T00:45:35.903Z,56.38
2023-04-07T00:48:03.123Z,51.88
2023-04-07T00:50:30.342Z,54.90
2023-04-07T00:52:57.488Z,52.70
2023-04-07T00:55:24.492Z,49.25
2023-04-07T00:57:51.836Z,52.47
2023-04-07T01:00:19.005Z,57.38
2023-04-07T01:02:47.973Z,51.53
2023-04-07T01:05:26.810Z,52.10
2023-04-07T01:08:12.871Z,51.63
2023-04-07T01:10:53.286Z,50.28
2023-04-07T01:13:24.058Z,54.80
2023-04-07T01:15:52.735Z,51.92
2023-04-07T01:18:23.606Z,49.58
2023-04-07T01:20:51.240Z,52.90
2023-04-07T01:23:19.801Z,46.95
2023-04-07T01:25:50.071Z,49.72
2023-04-07T01:28:22.947Z,48.67
2023-04-07T01:30:50.035Z,46.78
2023-04-07T01:33:17.183Z,50.97
2023-04-07T01:35:44.319Z,46.03
2023-04-07T01:38:11.399Z,45.10
2023-04-07T01:40:38.501Z,45.67
2023-04-07T01:43:05.784Z,47.72
2023-04-07T01:45:32.835Z,44.47
2023-04-07T01:47:59.969Z,45.55
2023-04-07T01:50:27.265Z,47.05
2023-04-07T01:52:54.410Z,42.42
2023-04-07T01:55:22.187Z,49.78
2023-04-07T01:57:49.194Z,45.20
2023-04-07T02:00:16.291Z,46.97
2023-04-07T02:02:45.086Z,44.85
2023-04-07T02:05:13.468Z,42.70
2023-04-07T02:07:40.667Z,46.30
2023-04-07T02:10:09.110Z,44.28
2023-04-07T02:12:36.172Z,46.83
2023-04-07T02:15:03.212Z,46.30
2023-04-07T02:17:30.316Z,44.95
2023-04-07T02:19:57.406Z,44.85
2023-04-07T02:22:24.488Z,39.20
2023-04-07T02:24:51.673Z,41.00
2023-04-07T02:27:20.019Z,40.40
2023-04-07T02:29:47.168Z,41.10
2023-04-07T02:32:14.180Z,42.50
2023-04-07T02:34:42.106Z,43.10
2023-04-07T02:37:09.199Z,43.47
2023-04-07T02:39:36.281Z,44.08
2023-04-07T02:42:03.365Z,41.85
2023-04-07T02:44:31.264Z,41.55
2023-04-07T02:46:58.341Z,37.55
2023-04-07T02:49:25.373Z,41.20
2023-04-07T02:51:52.478Z,39.22
2023-04-07T02:54:19.568Z,40.33
2023-04-07T02:56:46.649Z,36.45
2023-04-07T02:59:13.700Z,39.65
2023-04-07T03:01:40.982Z,39.75
2023-04-07T03:04:08.404Z,37.88
2023-04-07T03:06:35.793Z,38.47
2023-04-07T03:09:02.960Z,36.25
2023-04-07T03:11:30.062Z,37.03
2023-04-07T03:13:57.222Z,38.75
2023-04-07T03:16:24.341Z,34.45
2023-04-07T03:18:51.480Z,35.85
2023-04-07T03:21:18.530Z,35.22
2023-04-07T03:23:45.698Z,36.10
2023-04-07T03:26:12.828Z,34.28
2023-04-07T03:28:39.912Z,40.70
2023-04-07T03:31:07.157Z,36.53
2023-04-07T03:33:34.378Z,34.03
2023-04-07T03:36:01.461Z,36.42
2023-04-07T03:38:29.005Z,39.53
2023-04-07T03:40:56.070Z,32.50
2023-04-07T03:43:23.197Z,29.52
2023-04-07T03:45:50.597Z,32.53
2023-04-07T03:48:18.333Z,36.40
2023-04-07T03:50:46.843Z,35.28
2023-04-07T03:53:16.470Z,34.97
2023-04-07T03:55:43.765Z,30.70
2023-04-07T03:58:10.941Z,33.38
2023-04-07T04:00:38.102Z,32.95
2023-04-07T04:03:05.692Z,32.97
2023-04-07T04:05:32.765Z,29.58
2023-04-07T04:07:59.850Z,30.60
2023-04-07T04:10:27.225Z,32.15
2023-04-07T04:12:54.284Z,30.08
2023-04-07T04:15:21.477Z,30.75
2023-04-07T04:17:48.543Z,32.22
2023-04-07T04:20:15.625Z,33.38
2023-04-07T04:22:42.704Z,30.67
2023-04-07T04:25:09.926Z,26.67
2023-04-07T04:27:37.091Z,30.08
2023-04-07T04:30:04.361Z,30.88
2023-04-07T04:32:31.521Z,31.35
2023-04-07T04:34:58.539Z,31.10
2023-04-07T04:37:25.630Z,27.40
2023-04-07T04:39:52.691Z,30.33
2023-04-07T04:42:19.710Z,30.13
2023-04-07T04:44:46.792Z,32.40
2023-04-07T04:47:13.844Z,31.15
2023-04-07T04:49:41.434Z,30.88
2023-04-07T04:52:08.653Z,30.88
2023-04-07T04:54:36.063Z,30.42
2023-04-07T04:57:03.256Z,28.90
2023-04-07T04:59:30.393Z,32.40
2023-04-07T05:01:57.521Z,28.52
2023-04-07T05:04:24.835Z,32.85
2023-04-07T05:06:52.102Z,30.35
2023-04-07T05:09:19.156Z,29.15
2023-04-07T05:11:46.601Z,31.30
2023-04-07T05:14:13.682Z,31.40
2023-04-07T05:16:40.829Z,27.23
2023-04-07T05:19:08.028Z,29.58
2023-04-07T05:21:35.048Z,28.30
2023-04-07T05:24:02.324Z,26.42
2023-04-07T05:26:29.405Z,28.40
2023-04-07T05:28:56.419Z,27.33
2023-04-07T05:31:23.544Z,26.58
2023-04-07T05:33:50.845Z,27.05
2023-04-07T05:36:18.194Z,30.88
2023-04-07T05:38:45.592Z,28.17
2023-04-07T05:41:12.615Z,26.48
2023-04-07T05:43:39.675Z,25.52
2023-04-07T05:46:06.822Z,26.08
2023-04-07T05:48:34.021Z,30.58
2023-04-07T05:51:01.121Z,25.15
2023-04-07T05:53:28.214Z,23.98
2023-04-07T05:55:55.329Z,27.42
2023-04-07T05:58:22.386Z,25.75
2023-04-07T06:00:49.417Z,23.35
2023-04-07T06:03:16.700Z,24.23
2023-04-07T06:05:43.973Z,24.48
2023-04-07T06:08:11.292Z,22.02
2023-04-07T06:10:40.290Z,23.23
2023-04-07T06:13:07.355Z,21.65
2023-04-07T06:15:34.453Z,21.45
2023-04-07T06:18:01.548Z,21.92
2023-04-07T06:20:28.796Z,23.90
2023-04-07T06:22:55.874Z,22.05
2023-04-07T06:25:22.962Z,19.92
2023-04-07T06:27:50.057Z,20.00
2023-04-07T06:30:17.125Z,19.48
2023-04-07T06:32:44.287Z,20.83
2023-04-07T06:35:11.606Z,22.33
2023-04-07T06:37:39.341Z,17.38
2023-04-07T06:40:07.514Z,17.23
2023-04-07T06:42:34.558Z,20.38
2023-04-07T06:45:01.637Z,18.73
2023-04-07T06:47:29.290Z,17.88
2023-04-07T06:49:56.346Z,21.55
2023-04-07T06:52:23.363Z,21.55
2023-04-07T06:54:50.402Z,18.48
2023-04-07T06:57:17.485Z,16.88
2023-04-07T06:59:44.828Z,19.95
2023-04-07T07:02:12.012Z,18.13
2023-04-07T07:04:39.448Z,16.25
2023-04-07T07:07:06.785Z,21.25
2023-04-07T07:09:33.901Z,17.73
2023-04-07T07:12:04.056Z,18.00
2023-04-07T07:14:31.453Z,19.77
2023-04-07T07:16:58.559Z,22.38
2023-04-07T07:19:25.777Z,20.80
2023-04-07T07:21:52.848Z,20.65
2023-04-07T07:24:20.968Z,19.25
2023-04-07T07:26:47.996Z,19.67
2023-04-07T07:29:15.450Z,18.80
2023-04-07T07:31:42.751Z,18.13
2023-04-07T07:34:09.942Z,20.38
2023-04-07T07:36:37.002Z,17.85
2023-04-07T07:39:04.110Z,19.13
2023-04-07T07:41:31.234Z,20.42
2023-04-07T07:43:58.334Z,21.60
2023-04-07T07:46:27.252Z,20.85
2023-04-07T07:48:54.346Z,17.77
2023-04-07T07:51:21.679Z,18.80
2023-04-07T07:53:49.011Z,18.60
2023-04-07T07:56:16.529Z,19.45
2023-04-07T07:58:43.643Z,19.75
2023-04-07T08:01:11.070Z,19.05
2023-04-07T08:03:38.544Z,17.70
2023-04-07T08:06:06.629Z,19.40
2023-04-07T08:08:33.864Z,17.08
2023-04-07T08:11:01.198Z,17.85
2023-04-07T08:13:28.309Z,18.38
2023-04-07T08:15:55.474Z,18.52
2023-04-07T08:18:23.072Z,18.50
2023-04-07T08:20:51.505Z,18.90
2023-04-07T08:23:18.591Z,17.42
2023-04-07T08:25:45.764Z,18.00
2023-04-07T08:28:12.830Z,17.08
2023-04-07T08:30:39.956Z,17.48
2023-04-07T08:33:07.110Z,19.80
2023-04-07T08:35:34.324Z,17.63
2023-04-07T08:38:02.932Z,21.23
2023-04-07T08:40:30.038Z,19.95
2023-04-07T08:42:57.103Z,23.95
2023-04-07T08:45:24.175Z,23.52
2023-04-07T08:47:51.611Z,21.95
2023-04-07T08:50:18.749Z,22.98
2023-04-07T08:52:46.574Z,21.25
2023-04-07T08:55:13.743Z,19.60
2023-04-07T08:57:40.932Z,19.58
2023-04-07T09:00:08.381Z,18.55
2023-04-07T09:02:36.116Z,20.08
2023-04-07T09:05:04.096Z,21.00
2023-04-07T09:07:32.966Z,18.52
2023-04-07T09:10:00.179Z,20.55
2023-04-07T09:12:27.972Z,21.67
2023-04-07T09:14:55.295Z,18.10
2023-04-07T09:17:22.625Z,19.13
2023-04-07T09:19:49.687Z,21.00
2023-04-07T09:22:16.894Z,24.85
2023-04-07T09:24:43.922Z,24.23
2023-04-07T09:27:12.754Z,22.02
2023-04-07T09:29:42.050Z,19.67
2023-04-07T09:32:09.260Z,19.15
2023-04-07T09:34:41.214Z,17.77
2023-04-07T09:37:09.573Z,19.85
2023-04-07T09:39:56.914Z,20.45
2023-04-07T09:42:24.051Z,18.00
2023-04-07T09:44:51.166Z,19.58
2023-04-07T09:47:19.392Z,19.42
2023-04-07T09:49:53.821Z,18.20
2023-04-07T09:52:23.461Z,19.25
2023-04-07T09:54:51.232Z,18.58
2023-04-07T09:57:18.609Z,15.82
2023-04-07T09:59:45.892Z,14.88
2023-04-07T10:02:13.064Z,16.38
2023-04-07T10:04:41.230Z,16.75
2023-04-07T10:07:08.323Z,16.77
2023-04-07T10:09:35.443Z,16.02
2023-04-07T10:12:02.839Z,16.45
2023-04-07T10:14:32.928Z,16.38
2023-04-07T10:17:04.423Z,14.60
2023-04-07T10:19:33.383Z,19.02
2023-04-07T10:22:00.639Z,15.20
2023-04-07T10:24:37.074Z,15.65
2023-04-07T10:27:07.742Z,17.13
2023-04-07T10:29:39.377Z,17.13
2023-04-07T10:32:06.820Z,15.63
2023-04-07T10:34:57.873Z,15.25
2023-04-07T10:37:25.407Z,15.52
2023-04-07T10:39:53.601Z,16.08
2023-04-07T10:42:39.200Z,15.25
2023-04-07T10:45:06.772Z,27.77
2023-04-07T10:47:34.103Z,19.35
2023-04-07T10:50:13.635Z,17.17
2023-04-07T10:52:40.934Z,16.98
2023-04-07T10:55:26.633Z,21.73
2023-04-07T10:58:17.342Z,15.40
2023-04-07T11:03:15.084Z,19.50
2023-04-07T11:08:09.467Z,30.60
2023-04-07T11:10:36.675Z,33.28
2023-04-07T11:13:04.875Z,26.95
2023-04-07T11:15:32.034Z,22.95
2023-04-07T11:18:09.451Z,15.23
2023-04-07T11:20:49.643Z,15.75
2023-04-07T11:23:17.143Z,15.45
2023-04-07T11:25:44.912Z,15.13
2023-04-07T11:28:13.165Z,14.07
2023-04-07T11:30:40.396Z,16.70
2023-04-07T11:33:08.397Z,15.75
2023-04-07T11:35:36.092Z,15.45
2023-04-07T11:38:03.746Z,15.38
2023-04-07T11:40:34.913Z,18.30
2023-04-07T11:43:02.632Z,15.80
2023-04-07T11:45:29.733Z,15.60
2023-04-07T11:47:56.860Z,15.85
2023-04-07T11:50:42.721Z,16.42
2023-04-07T11:53:10.041Z,15.32
2023-04-07T11:55:37.130Z,13.32
2023-04-07T11:58:10.101Z,15.93
2023-04-07T12:00:37.485Z,15.25
2023-04-07T12:03:14.483Z,15.10
2023-04-07T12:05:45.409Z,14.90
2023-04-07T12:08:12.880Z,14.10
2023-04-07T12:10:41.431Z,12.82
2023-04-07T12:13:08.961Z,15.27
2023-04-07T12:15:39.474Z,13.98
2023-04-07T12:18:06.852Z,13.80
2023-04-07T12:20:35.407Z,13.45
2023-04-07T12:23:04.214Z,15.50
2023-04-07T12:25:31.359Z,13.80
2023-04-07T12:27:58.430Z,13.27
2023-04-07T12:30:25.760Z,12.15
2023-04-07T12:32:53.383Z,14.07
2023-04-07T12:35:20.919Z,12.68
2023-04-07T12:37:50.014Z,12.48
2023-04-07T12:40:17.823Z,9.57
2023-04-07T12:42:44.911Z,11.77
2023-04-07T12:45:12.083Z,10.95
2023-04-07T12:47:39.108Z,10.07
2023-04-07T12:50:06.685Z,10.75
2023-04-07T12:52:33.777Z,9.63
2023-04-07T12:55:00.889Z,11.02
2023-04-07T12:57:28.720Z,10.32
2023-04-07T12:59:55.820Z,8.13
2023-04-07T13:02:23.086Z,10.00
2023-04-07T13:04:50.262Z,12.20
2023-04-07T13:07:17.384Z,14.32
2023-04-07T13:09:44.447Z,16.35
2023-04-07T13:12:11.902Z,11.90
2023-04-07T13:14:53.104Z,9.27
2023-04-07T13:17:26.701Z,10.13
2023-04-07T13:19:54.318Z,9.40
2023-04-07T13:22:24.375Z,7.53
2023-04-07T13:24:51.815Z,8.65
2023-04-07T13:27:18.899Z,8.65
2023-04-07T13:29:46.232Z,9.20
2023-04-07T13:32:13.260Z,9.45
2023-04-07T13:34:40.489Z,7.28
2023-04-07T13:37:07.529Z,6.30
2023-04-07T13:39:34.611Z,4.65
2023-04-07T13:42:01.862Z,5.38
2023-04-07T13:44:29.116Z,4.60
2023-04-07T13:46:56.756Z,4.10
2023-04-07T13:49:23.870Z,4.05
2023-04-07T13:51:51.126Z,3.50
2023-04-07T13:54:18.562Z,5.07
2023-04-07T13:56:45.699Z,3.20
2023-04-07T13:59:12.774Z,3.70
2023-04-07T14:01:40.603Z,3.88
2023-04-07T14:04:07.802Z,2.70
2023-04-07T14:06:36.620Z,2.15
2023-04-07T14:09:04.009Z,2.25
2023-04-07T14:11:31.290Z,4.10
2023-04-07T14:13:58.375Z,2.25
2023-04-07T14:16:25.876Z,4.88
2023-04-07T14:18:52.985Z,2.95
2023-04-07T14:21:20.107Z,4.45
2023-04-07T14:23:47.227Z,6.13
2023-04-07T14:26:14.345Z,3.38
2023-04-07T14:28:41.721Z,4.15
2023-04-07T14:31:12.947Z,4.07
2023-04-07T14:33:40.033Z,3.85
2023-04-07T14:36:07.133Z,3.72
2023-04-07T14:38:35.322Z,3.97
2023-04-07T14:43:33.523Z,3.72
2023-04-07T14:46:00.701Z,4.15
2023-04-07T14:48:28.148Z,3.20
2023-04-07T14:51:08.245Z,4.72
2023-04-07T14:53:36.722Z,3.40
2023-04-07T14:56:06.858Z,4.00
2023-04-07T14:58:34.003Z,4.82
2023-04-07T15:01:01.288Z,5.93
2023-04-07T15:03:29.310Z,4.68
2023-04-07T15:05:56.622Z,6.30
2023-04-07T15:08:23.666Z,4.15
2023-04-07T15:10:50.808Z,4.22
2023-04-07T15:13:17.871Z,8.77
2023-04-07T15:15:45.015Z,3.92
2023-04-07T15:18:12.167Z,3.35
2023-04-07T15:20:39.240Z,3.47
2023-04-07T15:23:06.395Z,4.95
2023-04-07T15:25:33.424Z,3.50
2023-04-07T15:28:00.545Z,5.30
2023-04-07T15:30:27.580Z,4.93
2023-04-07T15:32:59.042Z,4.10
2023-04-07T15:35:26.534Z,4.72
2023-04-07T15:37:53.972Z,6.38
2023-04-07T15:40:21.192Z,5.68
2023-04-07T15:42:48.263Z,5.30
2023-04-07T15:45:15.396Z,6.22
2023-04-07T15:47:42.504Z,5.32
2023-04-07T15:50:09.956Z,4.60
2023-04-07T15:52:37.432Z,5.05
2023-04-07T15:55:04.785Z,4.88
2023-04-07T15:57:31.869Z,4.53
2023-04-07T15:59:58.926Z,4.25
2023-04-07T16:02:26.198Z,4.15
2023-04-07T16:04:54.135Z,6.10
2023-04-07T16:07:21.259Z,4.93
2023-04-07T16:09:48.300Z,4.75
2023-04-07T16:12:16.404Z,5.30
2023-04-07T16:14:43.503Z,4.50
2023-04-07T16:17:10.985Z,4.63
2023-04-07T16:19:38.092Z,4.28
2023-04-07T16:22:05.271Z,4.72
2023-04-07T16:24:32.301Z,7.05
2023-04-07T16:27:03.935Z,4.82
2023-04-07T16:29:31.409Z,6.88
2023-04-07T16:31:58.552Z,6.38
2023-04-07T16:34:25.699Z,4.00
2023-04-07T16:36:52.794Z,4.13
2023-04-07T16:39:19.915Z,3.53
2023-04-07T16:41:46.983Z,5.18
2023-04-07T16:44:14.059Z,5.00
2023-04-07T16:46:41.421Z,4.13
2023-04-07T16:49:10.773Z,4.70
2023-04-07T16:51:37.852Z,4.78
2023-04-07T16:54:05.003Z,5.15
2023-04-07T16:56:32.087Z,7.82
2023-04-07T16:58:59.194Z,6.05
2023-04-07T17:01:27.269Z,6.15
2023-04-07T17:03:54.484Z,6.40
2023-04-07T17:06:21.903Z,4.93
2023-04-07T17:08:48.940Z,5.43
2023-04-07T17:11:16.133Z,6.57
2023-04-07T17:13:43.237Z,8.00
2023-04-07T17:16:13.697Z,5.82
2023-04-07T17:21:07.884Z,6.53
2023-04-07T17:23:34.891Z,6.55
2023-04-07T17:26:01.913Z,6.05
2023-04-07T17:28:30.181Z,6.72
2023-04-07T17:30:58.393Z,6.38
2023-04-07T17:33:25.941Z,6.70
2023-04-07T17:35:53.120Z,5.97
2023-04-07T17:38:20.226Z,5.35
2023-04-07T17:40:47.350Z,6.32
2023-04-07T17:43:14.476Z,7.35
2023-04-07T17:45:41.645Z,7.97
2023-04-07T17:48:11.858Z,8.50
2023-04-07T17:50:39.113Z,7.32
2023-04-07T17:53:06.549Z,9.23
2023-04-07T17:55:33.617Z,6.05
2023-04-07T17:58:01.937Z,9.82
2023-04-07T18:00:29.692Z,7.60
2023-04-07T18:02:56.979Z,7.40
2023-04-07T18:05:24.408Z,8.02
2023-04-07T18:07:51.574Z,6.25
2023-04-07T18:10:18.623Z,5.78
2023-04-07T18:12:45.993Z,5.97
2023-04-07T18:15:13.268Z,5.85
2023-04-07T18:17:41.140Z,4.80
2023-04-07T18:20:08.519Z,5.03
2023-04-07T18:22:35.622Z,5.97
2023-04-07T18:25:02.897Z,7.22
2023-04-07T18:27:30.026Z,5.53
2023-04-07T18:29:57.043Z,6.40
2023-04-07T18:32:24.276Z,6.05
2023-04-07T18:34:51.334Z,6.13
2023-04-07T18:37:18.365Z,5.22
2023-04-07T18:39:45.517Z,3.28
2023-04-07T18:42:12.633Z,3.50
2023-04-07T18:44:41.235Z,3.90
2023-04-07T18:47:08.457Z,3.65
2023-04-07T18:49:35.534Z,4.18
2023-04-07T18:52:02.670Z,4.78
2023-04-07T18:54:29.693Z,3.30
2023-04-07T18:56:57.846Z,4.57
2023-04-07T18:59:27.991Z,4.75
2023-04-07T19:01:56.063Z,4.00
2023-04-07T19:04:24.813Z,5.55
2023-04-07T19:06:52.369Z,5.32
2023-04-07T19:09:19.540Z,4.55
2023-04-07T19:11:46.649Z,3.80
2023-04-07T19:14:13.957Z,6.95
2023-04-07T19:16:41.404Z,4.88
2023-04-07T19:19:10.034Z,4.85
2023-04-07T19:21:37.120Z,4.45
2023-04-07T19:24:04.282Z,5.47
2023-04-07T19:26:31.594Z,4.20
2023-04-07T19:28:58.671Z,6.32
2023-04-07T19:31:25.806Z,4.95
2023-04-07T19:33:52.856Z,5.60
2023-04-07T19:36:19.890Z,4.20
2023-04-07T19:38:46.974Z,5.18
2023-04-07T19:41:14.107Z,6.25
2023-04-07T19:43:41.278Z,6.22
2023-04-07T19:46:09.137Z,7.75
2023-04-07T19:48:37.026Z,5.18
2023-04-07T19:51:06.032Z,5.30
2023-04-07T19:53:34.173Z,6.13
2023-04-07T19:56:03.266Z,8.05
2023-04-07T19:58:30.321Z,7.72
2023-04-07T20:00:57.374Z,8.52
2023-04-07T20:03:24.651Z,5.95
2023-04-07T20:05:52.895Z,5.25
2023-04-07T20:08:19.987Z,9.40
2023-04-07T20:10:47.048Z,9.05
2023-04-07T20:13:14.132Z,6.72
2023-04-07T20:15:41.429Z,8.63
2023-04-07T20:18:08.594Z,7.03
2023-04-07T20:20:36.840Z,7.50
2023-04-07T20:23:03.941Z,6.03
2023-04-07T20:25:30.916Z,6.05
2023-04-07T20:27:58.555Z,8.73
2023-04-07T20:30:25.691Z,7.20
2023-04-07T20:32:52.777Z,7.00
2023-04-07T20:35:20.351Z,7.05
2023-04-07T20:37:47.512Z,10.05
2023-04-07T20:40:14.555Z,10.48
2023-04-07T20:42:41.587Z,7.53
2023-04-07T20:45:09.466Z,10.68
2023-04-07T20:47:36.815Z,9.07
2023-04-07T20:50:04.024Z,9.07
2023-04-07T20:52:31.135Z,7.88
2023-04-07T20:54:58.341Z,8.93
2023-04-07T20:57:25.427Z,11.88
2023-04-07T20:59:52.466Z,11.25
2023-04-07T21:02:19.583Z,8.60
2023-04-07T21:04:46.688Z,12.25
2023-04-07T21:07:13.700Z,11.52
2023-04-07T21:09:41.333Z,11.02
2023-04-07T21:12:08.420Z,10.82
2023-04-07T21:14:36.017Z,13.30
2023-04-07T21:17:03.082Z,10.40
2023-04-07T21:19:30.652Z,14.30
2023-04-07T21:21:57.621Z,21.13
2023-04-07T21:24:24.686Z,11.40
2023-04-07T21:26:52.424Z,11.77
2023-04-07T21:29:19.514Z,9.82
2023-04-07T21:31:46.605Z,13.55
2023-04-07T21:34:13.644Z,12.02
2023-04-07T21:36:41.336Z,13.35
2023-04-07T21:39:08.947Z,15.60
2023-04-07T21:41:36.462Z,12.65
2023-04-07T21:44:03.535Z,11.25
2023-04-07T21:46:30.879Z,13.82
2023-04-07T21:48:58.410Z,14.65
2023-04-07T21:51:25.719Z,14.23
2023-04-07T21:53:52.869Z,14.05
2023-04-07T21:56:19.989Z,12.32
2023-04-07T21:58:47.376Z,11.68
2023-04-07T22:01:14.623Z,15.57
2023-04-07T22:03:41.703Z,13.25
2023-04-07T22:06:09.219Z,17.50
2023-04-07T22:08:36.516Z,16.88
2023-04-07T22:11:03.574Z,16.98
2023-04-07T22:13:30.829Z,14.18
2023-04-07T22:15:59.895Z,13.95
2023-04-07T22:18:26.936Z,13.85
2023-04-07T22:20:54.002Z,13.95
2023-04-07T22:23:20.990Z,12.88
2023-04-07T22:25:49.122Z,19.58
2023-04-07T22:28:16.152Z,13.05
2023-04-07T22:30:43.190Z,13.45
2023-04-07T22:33:10.699Z,12.80
2023-04-07T22:35:38.434Z,14.18
2023-04-07T22:38:06.007Z,14.25
2023-04-07T22:40:32.988Z,15.27
2023-04-07T22:43:01.326Z,19.65
2023-04-07T22:45:29.277Z,16.65
2023-04-07T22:47:56.315Z,18.70
2023-04-07T22:50:23.559Z,18.02
2023-04-07T22:52:50.541Z,17.35
2023-04-07T22:55:17.562Z,29.63
2023-04-07T22:57:44.638Z,22.45
2023-04-07T23:00:11.856Z,20.70
2023-04-07T23:02:39.140Z,24.30
2023-04-07T23:05:12.526Z,21.80
2023-04-07T23:07:39.590Z,24.92
2023-04-07T23:10:07.692Z,24.67
2023-04-07T23:12:34.701Z,23.52
2023-04-07T23:15:01.726Z,21.35
2023-04-07T23:17:28.792Z,25.10
2023-04-07T23:19:55.935Z,23.35
2023-04-07T23:22:22.963Z,23.42
2023-04-07T23:24:49.993Z,27.15
2023-04-07T23:27:17.230Z,28.80
2023-04-07T23:29:44.348Z,32.55
2023-04-07T23:32:11.953Z,29.63
2023-04-07T23:34:39.122Z,33.28
2023-04-07T23:37:06.123Z,33.53
2023-04-07T23:39:34.258Z,35.35
2023-04-07T23:42:02.117Z,30.77
2023-04-07T23:44:29.237Z,30.50
2023-04-07T23:46:56.328Z,31.48
2023-04-07T23:49:23.358Z,31.90
2023-04-07T23:51:50.666Z,32.95
2023-04-07T23:54:17.760Z,35.45
2023-04-07T23:56:44.882Z,32.25
2023-04-07T23:59:13.231Z,29.05
